Time;durP1;ratioP1;P1;durP2;ratioP2;P2;SDS_P1;SDS_P2;PMS_P1;PMS_P2;Temp;Humidity;BMP_temperature;BMP_pressure;BME280_temperature;BME280_humidity;BME280_pressure;Samples;Min_cycle;Max_cycle;Signal;HPM_P1;HPM_P2
2023/09/30 00:01:14;;;;;;;11.75;5.63;;;;;;;;;;5030286;28;20205;-72
2023/09/30 00:03:40;;;;;;;9.02;4.85;;;;;;;;;;5046093;28;20216;-71
2023/09/30 00:06:07;;;;;;;9.75;4.75;;;;;;;;;;5045938;28;20232;-71
2023/09/30 00:08:33;;;;;;;10.00;4.88;;;;;;;;;;5046047;28;20206;-73
2023/09/30 00:10:59;;;;;;;10.05;5.10;;;;;;;;;;5044479;28;20228;-71
2023/09/30 00:13:26;;;;;;;10.95;4.82;;;;;;;;;;5051315;28;20197;-72
2023/09/30 00:15:52;;;;;;;9.85;4.90;;;;;;;;;;5050013;28;20224;-72
2023/09/30 00:18:20;;;;;;;6.65;4.32;;;;;;;;;;5049585;28;20556;-71
2023/09/30 00:20:47;;;;;;;9.52;4.78;;;;;;;;;;5049661;28;20200;-72
2023/09/30 00:23:14;;;;;;;7.85;4.43;;;;;;;;;;5033191;28;20593;-72
2023/09/30 00:25:40;;;;;;;7.55;4.40;;;;;;;;;;5049684;28;20228;-72
2023/09/30 00:28:06;;;;;;;7.85;4.50;;;;;;;;;;5049622;28;20208;-72
2023/09/30 00:30:33;;;;;;;8.38;4.38;;;;;;;;;;5051796;28;20559;-73
2023/09/30 00:33:00;;;;;;;9.55;4.20;;;;;;;;;;5051821;28;20197;-72
2023/09/30 00:35:27;;;;;;;7.15;4.40;;;;;;;;;;5051632;28;20239;-73
2023/09/30 00:37:53;;;;;;;5.45;3.63;;;;;;;;;;5051423;28;20219;-72
2023/09/30 00:40:20;;;;;;;6.13;3.47;;;;;;;;;;5052192;28;20209;-72
2023/09/30 00:42:46;;;;;;;7.93;4.03;;;;;;;;;;5051955;28;20193;-72
2023/09/30 00:45:12;;;;;;;9.07;3.67;;;;;;;;;;5051694;28;20224;-73
2023/09/30 00:47:39;;;;;;;8.10;4.00;;;;;;;;;;5051877;28;20200;-72
2023/09/30 00:50:08;;;;;;;7.05;4.20;;;;;;;;;;5051409;28;20578;-72
2023/09/30 00:52:36;;;;;;;6.72;4.18;;;;;;;;;;5051510;28;20773;-71
2023/09/30 00:55:03;;;;;;;4.10;3.10;;;;;;;;;;5051530;28;20233;-72
2023/09/30 00:57:30;;;;;;;6.45;3.35;;;;;;;;;;5051448;28;20662;-71
2023/09/30 00:59:57;;;;;;;5.20;3.15;;;;;;;;;;5051325;28;20201;-71
2023/09/30 01:02:24;;;;;;;5.90;3.58;;;;;;;;;;5051468;28;20200;-71
2023/09/30 01:04:50;;;;;;;5.55;3.60;;;;;;;;;;5051472;28;20220;-72
2023/09/30 01:07:17;;;;;;;6.68;3.60;;;;;;;;;;5051464;28;20220;-72
2023/09/30 01:09:44;;;;;;;5.38;3.42;;;;;;;;;;5051280;28;20600;-72
2023/09/30 01:12:12;;;;;;;5.45;3.15;;;;;;;;;;5051701;28;20243;-72
2023/09/30 01:14:40;;;;;;;6.85;3.58;;;;;;;;;;5051597;28;20711;-72
2023/09/30 01:17:09;;;;;;;5.20;3.15;;;;;;;;;;5051265;28;20205;-70
2023/09/30 01:19:35;;;;;;;6.00;3.22;;;;;;;;;;5051196;28;20208;-71
2023/09/30 01:22:04;;;;;;;8.80;2.88;;;;;;;;;;5051406;28;20212;-72
2023/09/30 01:24:30;;;;;;;4.20;3.10;;;;;;;;;;5051440;28;20217;-71
2023/09/30 01:26:57;;;;;;;4.13;2.50;;;;;;;;;;5050889;28;20225;-71
2023/09/30 01:29:25;;;;;;;5.22;2.53;;;;;;;;;;5050979;28;20236;-71
2023/09/30 01:31:52;;;;;;;3.10;2.55;;;;;;;;;;5051233;28;20212;-71
2023/09/30 01:34:18;;;;;;;2.67;2.00;;;;;;;;;;5051035;28;20204;-71
2023/09/30 01:36:45;;;;;;;4.75;2.40;;;;;;;;;;5051370;28;20217;-71
2023/09/30 01:39:13;;;;;;;4.38;2.42;;;;;;;;;;5051190;28;20201;-71
2023/09/30 01:41:39;;;;;;;2.10;1.88;;;;;;;;;;5053100;28;20254;-72
2023/09/30 01:44:06;;;;;;;3.40;2.10;;;;;;;;;;5055063;28;20223;-71
2023/09/30 01:46:32;;;;;;;2.00;1.80;;;;;;;;;;5054878;28;20592;-71
2023/09/30 01:48:58;;;;;;;2.05;1.73;;;;;;;;;;5054897;28;20680;-72
2023/09/30 01:51:25;;;;;;;2.25;1.95;;;;;;;;;;5055281;28;20214;-72
2023/09/30 01:53:51;;;;;;;2.90;2.10;;;;;;;;;;5055027;28;20201;-72
2023/09/30 01:56:19;;;;;;;2.58;1.88;;;;;;;;;;5054862;28;20232;-71
2023/09/30 01:58:45;;;;;;;3.95;2.20;;;;;;;;;;5054850;28;20220;-71
2023/09/30 02:01:11;;;;;;;2.53;1.88;;;;;;;;;;5054643;28;20668;-72
2023/09/30 02:03:38;;;;;;;3.25;2.40;;;;;;;;;;5055419;28;20240;-72
2023/09/30 02:06:04;;;;;;;3.33;2.08;;;;;;;;;;5054526;28;20232;-71
2023/09/30 02:08:31;;;;;;;2.70;2.10;;;;;;;;;;5054634;28;20576;-72
2023/09/30 02:10:57;;;;;;;2.95;2.20;;;;;;;;;;5054735;28;20227;-72
2023/09/30 02:13:25;;;;;;;3.00;2.40;;;;;;;;;;5054584;28;20193;-72
2023/09/30 02:15:51;;;;;;;4.63;2.72;;;;;;;;;;5054530;28;20448;-72
2023/09/30 02:18:18;;;;;;;3.55;2.50;;;;;;;;;;5054225;28;20735;-72
2023/09/30 02:20:44;;;;;;;4.93;2.90;;;;;;;;;;5054582;28;20350;-72
2023/09/30 02:23:11;;;;;;;3.83;3.08;;;;;;;;;;5054467;28;20209;-72
2023/09/30 02:25:37;;;;;;;4.93;3.20;;;;;;;;;;5050622;28;20225;-72
2023/09/30 02:28:04;;;;;;;6.65;2.88;;;;;;;;;;5053890;28;20197;-72
2023/09/30 02:30:32;;;;;;;3.55;2.30;;;;;;;;;;5054196;28;20287;-72
2023/09/30 02:32:59;;;;;;;3.67;2.22;;;;;;;;;;5054361;28;20213;-72
2023/09/30 02:35:26;;;;;;;2.30;2.03;;;;;;;;;;5053762;28;20659;-72
2023/09/30 02:37:52;;;;;;;3.55;2.20;;;;;;;;;;5054110;28;20201;-72
2023/09/30 02:40:19;;;;;;;3.03;2.25;;;;;;;;;;5054463;28;20228;-72
2023/09/30 02:42:46;;;;;;;5.80;2.95;;;;;;;;;;5054260;28;20207;-72
2023/09/30 02:45:13;;;;;;;6.47;3.35;;;;;;;;;;5054796;28;20232;-72
2023/09/30 02:47:40;;;;;;;3.80;3.10;;;;;;;;;;5057721;28;20581;-72
2023/09/30 02:50:08;;;;;;;5.75;2.80;;;;;;;;;;5057201;28;20661;-72
2023/09/30 02:52:34;;;;;;;5.22;2.47;;;;;;;;;;5054910;28;20193;-72
2023/09/30 02:55:02;;;;;;;4.25;2.75;;;;;;;;;;5053913;28;20205;-72
2023/09/30 02:57:28;;;;;;;2.70;2.50;;;;;;;;;;5053875;28;20205;-72
2023/09/30 02:59:56;;;;;;;5.57;2.75;;;;;;;;;;5053325;28;20208;-72
2023/09/30 03:02:22;;;;;;;4.38;2.55;;;;;;;;;;5053590;28;20233;-72
2023/09/30 03:04:50;;;;;;;2.80;2.28;;;;;;;;;;5053493;28;20209;-72
2023/09/30 03:07:18;;;;;;;3.28;3.00;;;;;;;;;;5053488;28;20208;-72
2023/09/30 03:09:44;;;;;;;5.07;2.80;;;;;;;;;;5053217;28;20255;-72
2023/09/30 03:12:12;;;;;;;4.20;2.90;;;;;;;;;;5053278;28;20296;-72
2023/09/30 03:14:40;;;;;;;3.42;3.00;;;;;;;;;;5053445;28;20221;-72
2023/09/30 03:17:11;;;;;;;3.72;2.90;;;;;;;;;;5053040;28;20274;-71
2023/09/30 03:19:37;;;;;;;4.80;3.10;;;;;;;;;;5038587;28;20204;-71
2023/09/30 03:22:06;;;;;;;3.28;2.70;;;;;;;;;;5053247;28;20665;-71
2023/09/30 03:24:32;;;;;;;3.47;3.03;;;;;;;;;;5036610;28;20233;-71
2023/09/30 03:26:58;;;;;;;5.85;3.15;;;;;;;;;;5053366;28;20625;-71
2023/09/30 03:29:26;;;;;;;4.10;2.95;;;;;;;;;;5053054;28;20255;-71
2023/09/30 03:31:52;;;;;;;6.60;3.10;;;;;;;;;;5053126;28;20255;-72
2023/09/30 03:34:20;;;;;;;3.00;2.67;;;;;;;;;;5052830;28;20608;-71
2023/09/30 03:36:46;;;;;;;4.82;3.00;;;;;;;;;;5053045;28;20223;-71
2023/09/30 03:39:15;;;;;;;3.85;2.58;;;;;;;;;;5052658;28;20212;-71
2023/09/30 03:41:41;;;;;;;4.20;3.05;;;;;;;;;;5053323;28;20201;-72
2023/09/30 03:44:08;;;;;;;2.60;2.40;;;;;;;;;;5053094;28;20224;-72
2023/09/30 03:46:34;;;;;;;4.40;2.90;;;;;;;;;;5036541;28;20221;-71
2023/09/30 03:49:00;;;;;;;2.38;2.17;;;;;;;;;;5052687;28;20201;-71
2023/09/30 03:51:26;;;;;;;3.17;2.38;;;;;;;;;;5052623;28;20206;-72
2023/09/30 03:53:53;;;;;;;2.35;2.15;;;;;;;;;;5052579;28;20205;-72
2023/09/30 03:56:22;;;;;;;4.03;2.40;;;;;;;;;;5052557;28;20225;-72
2023/09/30 03:58:49;;;;;;;2.30;2.10;;;;;;;;;;5052444;28;20193;-72
2023/09/30 04:01:16;;;;;;;7.15;2.17;;;;;;;;;;5052466;28;20232;-72
2023/09/30 04:03:43;;;;;;;2.40;1.80;;;;;;;;;;5051742;28;20255;-72
2023/09/30 04:06:09;;;;;;;2.30;2.00;;;;;;;;;;5052477;28;20221;-72
2023/09/30 04:08:36;;;;;;;2.42;2.22;;;;;;;;;;5035659;28;20623;-72
2023/09/30 04:11:03;;;;;;;2.53;2.33;;;;;;;;;;5052650;28;20204;-72
2023/09/30 04:13:31;;;;;;;4.88;2.28;;;;;;;;;;5052471;28;20209;-72
2023/09/30 04:15:58;;;;;;;3.28;2.45;;;;;;;;;;5052147;28;20221;-73
2023/09/30 04:18:25;;;;;;;3.28;2.67;;;;;;;;;;5052091;28;20205;-72
2023/09/30 04:20:52;;;;;;;4.32;3.08;;;;;;;;;;5052216;28;20228;-71
2023/09/30 04:23:20;;;;;;;7.38;3.80;;;;;;;;;;5052142;28;20204;-71
2023/09/30 04:25:46;;;;;;;6.05;3.22;;;;;;;;;;5051904;28;20602;-71
2023/09/30 04:28:13;;;;;;;6.15;3.40;;;;;;;;;;5051768;28;20203;-71
2023/09/30 04:30:41;;;;;;;4.97;3.55;;;;;;;;;;5036149;28;20302;-71
2023/09/30 04:33:08;;;;;;;4.43;3.65;;;;;;;;;;5051816;28;20584;-71
2023/09/30 04:35:35;;;;;;;9.65;4.72;;;;;;;;;;5051542;28;20224;-71
2023/09/30 04:38:01;;;;;;;9.95;4.78;;;;;;;;;;5051371;28;20678;-72
2023/09/30 04:40:29;;;;;;;6.80;3.65;;;;;;;;;;5051630;28;20669;-72
2023/09/30 04:42:58;;;;;;;5.50;3.65;;;;;;;;;;5052043;28;20568;-72
2023/09/30 04:45:25;;;;;;;6.35;3.70;;;;;;;;;;5051406;28;20227;-72
2023/09/30 04:47:53;;;;;;;5.40;3.42;;;;;;;;;;5051319;28;20229;-72
2023/09/30 04:50:21;;;;;;;6.57;3.58;;;;;;;;;;5051332;28;20692;-72
2023/09/30 04:52:47;;;;;;;4.68;3.45;;;;;;;;;;5051573;28;20686;-72
2023/09/30 04:55:16;;;;;;;3.60;3.30;;;;;;;;;;5051659;28;20217;-71
2023/09/30 04:57:44;;;;;;;5.63;3.20;;;;;;;;;;5035738;28;20288;-72
2023/09/30 05:00:11;;;;;;;3.10;2.70;;;;;;;;;;5051285;28;20205;-63
2023/09/30 05:02:38;;;;;;;4.25;3.25;;;;;;;;;;5051225;28;20661;-62
2023/09/30 05:05:06;;;;;;;8.88;3.60;;;;;;;;;;5051398;28;20296;-63
2023/09/30 05:07:33;;;;;;;4.90;3.50;;;;;;;;;;5051221;28;20204;-62
2023/09/30 05:10:00;;;;;;;4.80;2.95;;;;;;;;;;5051211;28;20203;-62
2023/09/30 05:12:26;;;;;;;4.20;3.15;;;;;;;;;;5051260;28;20201;-63
2023/09/30 05:14:54;;;;;;;5.35;3.33;;;;;;;;;;5050894;28;20684;-63
2023/09/30 05:17:21;;;;;;;5.55;3.40;;;;;;;;;;5051194;28;20725;-63
2023/09/30 05:19:48;;;;;;;3.28;2.97;;;;;;;;;;5051063;28;20228;-63
2023/09/30 05:22:18;;;;;;;4.32;3.47;;;;;;;;;;5051213;28;20204;-63
2023/09/30 05:24:44;;;;;;;6.07;3.80;;;;;;;;;;5035032;28;20351;-63
2023/09/30 05:27:11;;;;;;;6.28;3.80;;;;;;;;;;5051044;28;20200;-63
2023/09/30 05:29:37;;;;;;;7.30;4.22;;;;;;;;;;5050700;28;20197;-63
2023/09/30 05:32:03;;;;;;;6.40;3.75;;;;;;;;;;5051325;28;20208;-63
2023/09/30 05:34:30;;;;;;;6.20;3.75;;;;;;;;;;5051158;28;20228;-63
2023/09/30 05:36:56;;;;;;;4.68;3.47;;;;;;;;;;5051183;28;20225;-63
2023/09/30 05:39:25;;;;;;;7.20;3.47;;;;;;;;;;5050540;28;20581;-63
2023/09/30 05:41:51;;;;;;;8.77;4.05;;;;;;;;;;5051015;28;20673;-64
2023/09/30 05:44:17;;;;;;;5.13;3.40;;;;;;;;;;5050996;28;20288;-62
2023/09/30 05:46:45;;;;;;;7.72;4.32;;;;;;;;;;5051348;28;20232;-62
2023/09/30 05:49:13;;;;;;;5.45;4.10;;;;;;;;;;5051180;28;20549;-63
2023/09/30 05:51:40;;;;;;;9.95;4.07;;;;;;;;;;5051233;28;20229;-63
2023/09/30 05:54:09;;;;;;;3.92;3.30;;;;;;;;;;5050997;28;20228;-63
2023/09/30 05:56:38;;;;;;;7.45;3.80;;;;;;;;;;5051548;28;20221;-63
2023/09/30 05:59:04;;;;;;;4.57;3.70;;;;;;;;;;5051033;28;20262;-63
2023/09/30 06:01:32;;;;;;;5.22;3.58;;;;;;;;;;5051453;28;20233;-63
2023/09/30 06:03:58;;;;;;;9.38;3.60;;;;;;;;;;5051170;28;20228;-63
2023/09/30 06:06:26;;;;;;;6.53;3.60;;;;;;;;;;5050550;28;20221;-63
2023/09/30 06:08:53;;;;;;;4.63;3.67;;;;;;;;;;5050506;28;20197;-63
2023/09/30 06:11:24;;;;;;;5.57;3.75;;;;;;;;;;5050903;28;20288;-64
2023/09/30 06:13:52;;;;;;;4.00;3.20;;;;;;;;;;5035163;28;20197;-63
2023/09/30 06:16:19;;;;;;;6.65;3.47;;;;;;;;;;5050654;28;20232;-63
2023/09/30 06:18:45;;;;;;;8.75;4.35;;;;;;;;;;5050421;28;20201;-64
2023/09/30 06:21:11;;;;;;;5.13;3.55;;;;;;;;;;5050786;28;20492;-63
2023/09/30 06:23:37;;;;;;;6.70;4.22;;;;;;;;;;5050520;28;20204;-63
2023/09/30 06:26:04;;;;;;;5.25;3.65;;;;;;;;;;5050349;28;20570;-63
2023/09/30 06:28:31;;;;;;;7.10;3.80;;;;;;;;;;5053369;28;20209;-63
2023/09/30 06:30:59;;;;;;;4.55;3.38;;;;;;;;;;5054607;28;20201;-63
2023/09/30 06:33:29;;;;;;;5.55;3.35;;;;;;;;;;5054107;28;20205;-64
2023/09/30 06:35:55;;;;;;;5.25;3.45;;;;;;;;;;5053931;28;20638;-63
2023/09/30 06:38:21;;;;;;;6.78;3.33;;;;;;;;;;5053692;28;20205;-63
2023/09/30 06:40:48;;;;;;;4.82;3.28;;;;;;;;;;5054021;28;20200;-63
2023/09/30 06:43:15;;;;;;;4.78;3.45;;;;;;;;;;5053907;28;20198;-63
2023/09/30 06:45:42;;;;;;;4.47;3.47;;;;;;;;;;5053714;28;20232;-63
2023/09/30 06:48:12;;;;;;;4.05;3.15;;;;;;;;;;5053772;28;20251;-63
2023/09/30 06:50:38;;;;;;;9.65;3.72;;;;;;;;;;5053874;28;20342;-64
2023/09/30 06:53:05;;;;;;;4.63;3.45;;;;;;;;;;5053768;28;20209;-65
2023/09/30 06:55:31;;;;;;;6.60;3.33;;;;;;;;;;5053470;28;20775;-63
2023/09/30 06:57:58;;;;;;;6.53;3.38;;;;;;;;;;5053886;28;20215;-63
2023/09/30 07:00:25;;;;;;;5.10;3.22;;;;;;;;;;5054164;28;20673;-63
2023/09/30 07:02:51;;;;;;;4.88;3.10;;;;;;;;;;5053598;28;20205;-64
2023/09/30 07:05:19;;;;;;;8.18;3.63;;;;;;;;;;5053232;28;20343;-64
2023/09/30 07:07:45;;;;;;;5.43;3.05;;;;;;;;;;5053318;28;20208;-63
2023/09/30 07:10:12;;;;;;;6.45;3.28;;;;;;;;;;5053414;28;20216;-63
2023/09/30 07:12:39;;;;;;;4.65;2.97;;;;;;;;;;5053296;28;20205;-63
2023/09/30 07:15:06;;;;;;;5.82;3.25;;;;;;;;;;5053060;28;20291;-63
2023/09/30 07:17:32;;;;;;;6.28;3.00;;;;;;;;;;5053173;28;20217;-64
2023/09/30 07:19:59;;;;;;;4.72;2.80;;;;;;;;;;5053016;28;20201;-63
2023/09/30 07:22:26;;;;;;;7.72;2.88;;;;;;;;;;5053554;28;20204;-63
2023/09/30 07:24:53;;;;;;;7.80;3.38;;;;;;;;;;5052933;28;20201;-63
2023/09/30 07:27:19;;;;;;;6.20;3.30;;;;;;;;;;5053063;28;20673;-63
2023/09/30 07:29:45;;;;;;;6.50;2.75;;;;;;;;;;5053021;28;20212;-63
2023/09/30 07:32:12;;;;;;;6.18;2.80;;;;;;;;;;5053025;28;20300;-63
2023/09/30 07:34:38;;;;;;;7.68;3.17;;;;;;;;;;5052785;28;20213;-64
2023/09/30 07:37:04;;;;;;;3.10;2.80;;;;;;;;;;5053041;28;20209;-63
2023/09/30 07:39:32;;;;;;;7.13;2.85;;;;;;;;;;5051624;28;20197;-63
2023/09/30 07:41:58;;;;;;;5.40;3.08;;;;;;;;;;5052791;28;20669;-63
2023/09/30 07:44:24;;;;;;;6.43;3.25;;;;;;;;;;5052839;28;20200;-63
2023/09/30 07:46:51;;;;;;;5.97;2.95;;;;;;;;;;5052430;28;20232;-63
2023/09/30 07:49:17;;;;;;;7.10;3.10;;;;;;;;;;5052419;28;20193;-63
2023/09/30 07:51:43;;;;;;;9.93;2.85;;;;;;;;;;5052612;28;20201;-63
2023/09/30 07:54:09;;;;;;;7.63;3.08;;;;;;;;;;5052622;28;20612;-64
2023/09/30 07:56:37;;;;;;;6.05;2.92;;;;;;;;;;5052202;28;20693;-63
2023/09/30 07:59:03;;;;;;;6.85;3.30;;;;;;;;;;5052386;28;20197;-63
2023/09/30 08:01:30;;;;;;;6.93;3.15;;;;;;;;;;5052514;28;20208;-63
2023/09/30 08:03:56;;;;;;;4.93;3.17;;;;;;;;;;5052249;28;20233;-63
2023/09/30 08:06:23;;;;;;;6.30;3.15;;;;;;;;;;5052275;28;20265;-63
2023/09/30 08:08:49;;;;;;;4.60;2.80;;;;;;;;;;5052561;28;20201;-62
2023/09/30 08:11:16;;;;;;;5.75;3.38;;;;;;;;;;5052550;28;20231;-63
2023/09/30 08:13:43;;;;;;;5.88;2.90;;;;;;;;;;5052241;28;20204;-63
2023/09/30 08:16:10;;;;;;;6.22;3.38;;;;;;;;;;5052043;28;20220;-63
2023/09/30 08:18:36;;;;;;;6.10;3.05;;;;;;;;;;5051657;28;20657;-63
2023/09/30 08:21:03;;;;;;;7.53;3.53;;;;;;;;;;5052212;28;20208;-64
2023/09/30 08:23:31;;;;;;;4.95;3.50;;;;;;;;;;5052321;28;20196;-64
2023/09/30 08:25:58;;;;;;;7.75;3.83;;;;;;;;;;5051788;28;20224;-64
2023/09/30 08:28:25;;;;;;;7.97;3.83;;;;;;;;;;5051825;28;20197;-64
2023/09/30 08:30:57;;;;;;;7.00;3.40;;;;;;;;;;5051829;28;20582;-64
2023/09/30 08:33:24;;;;;;;4.10;2.90;;;;;;;;;;5052083;28;20228;-63
2023/09/30 08:35:50;;;;;;;7.75;4.07;;;;;;;;;;5051838;28;20304;-63
2023/09/30 08:38:16;;;;;;;6.55;4.03;;;;;;;;;;5051586;28;20201;-63
2023/09/30 08:40:45;;;;;;;9.95;4.40;;;;;;;;;;5051645;28;20689;-63
2023/09/30 08:43:12;;;;;;;7.47;3.90;;;;;;;;;;5051688;28;20193;-64
2023/09/30 08:45:40;;;;;;;6.82;3.45;;;;;;;;;;5051200;28;20254;-63
2023/09/30 08:48:08;;;;;;;8.50;3.95;;;;;;;;;;5051494;28;20193;-63
2023/09/30 08:50:34;;;;;;;4.60;3.28;;;;;;;;;;5051363;28;20229;-63
2023/09/30 08:53:01;;;;;;;7.20;3.78;;;;;;;;;;5051449;28;20205;-64
2023/09/30 08:55:27;;;;;;;5.22;3.78;;;;;;;;;;5051410;28;20220;-64
2023/09/30 08:57:55;;;;;;;5.15;3.55;;;;;;;;;;5051073;28;20201;-64
2023/09/30 09:00:21;;;;;;;5.93;3.90;;;;;;;;;;5051667;28;20197;-64
2023/09/30 09:02:48;;;;;;;4.75;3.65;;;;;;;;;;5051289;28;20216;-63
2023/09/30 09:05:16;;;;;;;6.00;4.00;;;;;;;;;;5051349;28;20565;-64
2023/09/30 09:07:43;;;;;;;9.48;4.53;;;;;;;;;;5051123;28;20220;-63
2023/09/30 09:10:10;;;;;;;5.70;4.18;;;;;;;;;;5051027;28;20228;-62
2023/09/30 09:12:38;;;;;;;6.05;4.18;;;;;;;;;;5051295;28;20224;-64
2023/09/30 09:15:06;;;;;;;5.72;4.50;;;;;;;;;;5051156;28;20256;-63
2023/09/30 09:17:42;;;;;;;8.93;4.10;;;;;;;;;;5051199;28;20193;-63
2023/09/30 09:20:10;;;;;;;6.35;3.80;;;;;;;;;;5035367;28;20430;-63
2023/09/30 09:22:42;;;;;;;5.10;3.83;;;;;;;;;;5051253;28;20247;-63
2023/09/30 09:25:09;;;;;;;10.23;3.95;;;;;;;;;;5050838;28;20220;-63
2023/09/30 09:27:36;;;;;;;7.47;4.05;;;;;;;;;;5051104;28;20217;-63
2023/09/30 09:30:15;;;;;;;4.70;3.58;;;;;;;;;;5050754;28;20209;-63
2023/09/30 09:32:53;;;;;;;5.85;3.60;;;;;;;;;;5051114;28;20192;-63
2023/09/30 09:35:20;;;;;;;8.20;3.85;;;;;;;;;;5037916;28;20232;-63
2023/09/30 09:37:54;;;;;;;8.27;3.70;;;;;;;;;;5050876;28;20189;-63
2023/09/30 09:40:23;;;;;;;4.05;3.63;;;;;;;;;;5051472;28;20198;-65
2023/09/30 09:42:50;;;;;;;6.50;3.83;;;;;;;;;;5050986;28;20235;-64
2023/09/30 09:45:17;;;;;;;6.78;4.05;;;;;;;;;;5050919;28;20213;-62
2023/09/30 09:47:43;;;;;;;6.72;3.42;;;;;;;;;;5050761;28;20216;-63
2023/09/30 09:50:10;;;;;;;6.60;4.10;;;;;;;;;;5034526;28;20201;-63
2023/09/30 09:52:38;;;;;;;4.60;3.75;;;;;;;;;;5050899;28;20201;-63
2023/09/30 09:55:07;;;;;;;6.03;3.42;;;;;;;;;;5050831;28;20225;-62
2023/09/30 09:57:34;;;;;;;6.10;4.10;;;;;;;;;;5050870;28;20212;-63
2023/09/30 10:00:05;;;;;;;6.18;3.47;;;;;;;;;;5050565;28;20212;-64
2023/09/30 10:02:31;;;;;;;5.95;3.45;;;;;;;;;;5052517;28;20673;-64
2023/09/30 10:04:58;;;;;;;5.20;3.72;;;;;;;;;;5054470;28;20205;-64
2023/09/30 10:07:26;;;;;;;6.15;4.28;;;;;;;;;;5054691;28;20221;-63
2023/09/30 10:09:53;;;;;;;11.90;4.03;;;;;;;;;;5054356;28;20200;-63
2023/09/30 10:12:22;;;;;;;8.43;3.80;;;;;;;;;;5054705;28;20197;-64
2023/09/30 10:14:49;;;;;;;6.22;4.03;;;;;;;;;;5054217;28;20229;-64
2023/09/30 10:17:16;;;;;;;8.02;4.20;;;;;;;;;;5054317;28;20194;-64
2023/09/30 10:19:59;;;;;;;8.43;4.13;;;;;;;;;;5054523;28;20204;-64
2023/09/30 10:22:25;;;;;;;6.00;4.10;;;;;;;;;;5041786;28;20723;-64
2023/09/30 10:24:56;;;;;;;4.93;3.90;;;;;;;;;;5054287;28;20231;-64
2023/09/30 10:27:31;;;;;;;8.93;4.10;;;;;;;;;;5054616;28;20217;-63
2023/09/30 10:29:59;;;;;;;4.65;3.95;;;;;;;;;;5054254;28;20205;-63
2023/09/30 10:32:48;;;;;;;4.78;4.00;;;;;;;;;;5054591;28;20196;-64
2023/09/30 10:35:14;;;;;;;7.80;4.40;;;;;;;;;;5037882;28;20217;-63
2023/09/30 10:37:42;;;;;;;9.23;4.65;;;;;;;;;;5054107;28;20247;-64
2023/09/30 10:40:09;;;;;;;6.72;3.97;;;;;;;;;;5053596;28;20687;-64
2023/09/30 10:42:51;;;;;;;6.88;4.40;;;;;;;;;;5054333;28;20201;-64
2023/09/30 10:45:35;;;;;;;5.70;4.22;;;;;;;;;;5038631;28;20220;-64
2023/09/30 10:48:31;;;;;;;10.40;4.43;;;;;;;;;;5053554;28;20221;-64
2023/09/30 10:51:00;;;;;;;9.23;4.22;;;;;;;;;;5053847;28;20228;-64
2023/09/30 10:53:27;;;;;;;7.57;4.05;;;;;;;;;;5053844;28;20201;-64
2023/09/30 10:55:55;;;;;;;4.90;3.70;;;;;;;;;;5053909;28;20224;-63
2023/09/30 10:58:21;;;;;;;4.82;3.42;;;;;;;;;;5053547;28;20196;-63
2023/09/30 11:00:53;;;;;;;6.50;3.85;;;;;;;;;;5053726;28;20262;-63
2023/09/30 11:03:20;;;;;;;7.68;3.70;;;;;;;;;;5038744;28;20274;-63
2023/09/30 11:05:48;;;;;;;8.48;3.97;;;;;;;;;;5053642;28;20217;-63
2023/09/30 11:08:15;;;;;;;8.05;4.05;;;;;;;;;;5053266;28;20365;-63
2023/09/30 11:10:47;;;;;;;5.32;3.97;;;;;;;;;;5053488;28;20205;-64
2023/09/30 11:13:14;;;;;;;5.40;3.90;;;;;;;;;;5053006;28;20219;-63
2023/09/30 11:15:40;;;;;;;6.20;3.70;;;;;;;;;;5053480;28;20539;-63
2023/09/30 11:18:16;;;;;;;8.95;4.45;;;;;;;;;;5053173;28;20199;-63
2023/09/30 11:20:44;;;;;;;7.00;4.45;;;;;;;;;;5053491;28;20205;-67
2023/09/30 11:23:10;;;;;;;6.97;4.45;;;;;;;;;;5053260;28;20201;-63
2023/09/30 11:25:39;;;;;;;9.93;5.47;;;;;;;;;;5053197;28;20677;-63
2023/09/30 11:28:15;;;;;;;13.20;5.30;;;;;;;;;;5052758;28;20774;-64
2023/09/30 11:30:53;;;;;;;7.72;5.05;;;;;;;;;;5053357;28;20679;-63
2023/09/30 11:33:22;;;;;;;8.60;5.22;;;;;;;;;;5037523;28;20193;-63
2023/09/30 11:35:57;;;;;;;9.30;5.20;;;;;;;;;;5053257;28;20217;-63
2023/09/30 11:38:24;;;;;;;9.95;5.50;;;;;;;;;;5038027;28;20807;-63
2023/09/30 11:41:06;;;;;;;10.73;5.25;;;;;;;;;;5053479;28;20196;-63
2023/09/30 11:43:33;;;;;;;10.45;5.63;;;;;;;;;;5040377;28;20736;-63
2023/09/30 11:46:08;;;;;;;10.35;6.05;;;;;;;;;;5052901;28;20224;-63
2023/09/30 11:48:35;;;;;;;8.93;5.07;;;;;;;;;;5052831;28;20226;-63
2023/09/30 11:51:02;;;;;;;7.93;4.88;;;;;;;;;;5052750;28;20204;-63
2023/09/30 11:53:30;;;;;;;10.02;5.80;;;;;;;;;;5052861;28;20205;-63
2023/09/30 11:55:57;;;;;;;9.20;5.30;;;;;;;;;;5052839;28;20225;-64
2023/09/30 11:58:25;;;;;;;12.52;5.00;;;;;;;;;;5052553;28;20283;-64
2023/09/30 12:00:54;;;;;;;9.00;5.20;;;;;;;;;;5052654;28;20696;-64
2023/09/30 12:03:21;;;;;;;7.90;5.15;;;;;;;;;;5052660;28;20224;-64
2023/09/30 12:05:47;;;;;;;9.02;5.18;;;;;;;;;;5052860;28;20216;-63
2023/09/30 12:08:14;;;;;;;8.30;5.22;;;;;;;;;;5052259;28;20594;-63
2023/09/30 12:10:40;;;;;;;9.27;5.20;;;;;;;;;;5052627;28;20211;-63
2023/09/30 12:13:07;;;;;;;8.50;5.40;;;;;;;;;;5052333;28;20212;-63
2023/09/30 12:15:34;;;;;;;11.75;5.57;;;;;;;;;;5052355;28;20221;-63
2023/09/30 12:18:00;;;;;;;9.48;5.25;;;;;;;;;;5052002;28;20684;-63
2023/09/30 12:20:27;;;;;;;10.75;5.55;;;;;;;;;;5052638;28;20292;-63
2023/09/30 12:22:54;;;;;;;9.23;5.75;;;;;;;;;;5052556;28;20212;-64
2023/09/30 12:25:21;;;;;;;12.02;5.68;;;;;;;;;;5051560;28;20213;-64
2023/09/30 12:27:47;;;;;;;8.32;4.90;;;;;;;;;;5052121;28;20278;-64
2023/09/30 12:30:14;;;;;;;10.07;5.80;;;;;;;;;;5066583;22;20256;-63
2023/09/30 12:32:42;;;;;;;9.18;5.80;;;;;;;;;;5052123;28;20250;-63
2023/09/30 12:35:10;;;;;;;15.70;5.60;;;;;;;;;;5053605;28;20235;-63
2023/09/30 12:37:38;;;;;;;10.57;5.88;;;;;;;;;;5064267;28;20211;-63
2023/09/30 12:40:06;;;;;;;10.07;5.32;;;;;;;;;;5063727;28;20200;-63
2023/09/30 12:42:34;;;;;;;9.98;5.75;;;;;;;;;;5063859;28;20200;-63
2023/09/30 12:45:01;;;;;;;8.27;5.63;;;;;;;;;;5063342;28;20200;-63
2023/09/30 12:47:27;;;;;;;8.85;5.13;;;;;;;;;;5060334;28;20228;-63
2023/09/30 12:49:55;;;;;;;8.15;4.97;;;;;;;;;;5060239;28;20204;-64
2023/09/30 12:52:23;;;;;;;8.73;4.88;;;;;;;;;;5062916;28;20672;-63
2023/09/30 12:54:49;;;;;;;8.68;5.20;;;;;;;;;;5063341;28;20228;-63
2023/09/30 12:57:17;;;;;;;8.77;4.60;;;;;;;;;;5061130;28;20574;-63
2023/09/30 12:59:45;;;;;;;8.20;4.65;;;;;;;;;;5059807;28;20276;-63
2023/09/30 13:02:12;;;;;;;8.88;4.95;;;;;;;;;;5061538;28;20201;-63
2023/09/30 13:04:42;;;;;;;7.90;4.90;;;;;;;;;;5063453;28;20192;-63
2023/09/30 13:07:11;;;;;;;8.73;5.82;;;;;;;;;;5062225;28;20700;-63
2023/09/30 13:09:37;;;;;;;10.52;5.03;;;;;;;;;;5059850;28;20201;-62
2023/09/30 13:12:03;;;;;;;9.10;4.95;;;;;;;;;;5059971;28;20201;-62
2023/09/30 13:14:30;;;;;;;10.82;5.82;;;;;;;;;;5063503;28;20192;-62
2023/09/30 13:16:56;;;;;;;10.65;5.15;;;;;;;;;;5063391;28;20223;-62
2023/09/30 13:19:22;;;;;;;9.85;4.95;;;;;;;;;;5060347;28;20260;-62
2023/09/30 13:21:49;;;;;;;10.05;5.43;;;;;;;;;;5059900;28;20199;-62
2023/09/30 13:24:16;;;;;;;8.45;4.80;;;;;;;;;;5061286;28;20200;-62
2023/09/30 13:26:43;;;;;;;7.50;4.88;;;;;;;;;;5062803;28;20219;-63
2023/09/30 13:29:11;;;;;;;10.07;5.07;;;;;;;;;;5062425;28;20200;-63
2023/09/30 13:31:38;;;;;;;11.40;5.25;;;;;;;;;;5059776;28;20200;-63
2023/09/30 13:34:05;;;;;;;8.27;4.97;;;;;;;;;;5059836;28;20661;-62
2023/09/30 13:36:31;;;;;;;9.23;5.50;;;;;;;;;;5064726;28;20227;-62
2023/09/30 13:38:57;;;;;;;9.85;5.43;;;;;;;;;;5067073;28;20223;-62
2023/09/30 13:41:25;;;;;;;9.77;5.53;;;;;;;;;;5064529;28;20204;-63
2023/09/30 13:43:52;;;;;;;11.32;5.20;;;;;;;;;;5063891;28;20196;-63
2023/09/30 13:46:18;;;;;;;8.15;4.90;;;;;;;;;;5065460;28;20248;-63
2023/09/30 13:48:44;;;;;;;8.73;5.53;;;;;;;;;;5066847;28;20212;-63
2023/09/30 13:51:11;;;;;;;7.85;5.03;;;;;;;;;;5066703;28;20196;-62
2023/09/30 13:53:37;;;;;;;8.15;4.70;;;;;;;;;;5063875;28;20657;-62
2023/09/30 13:56:04;;;;;;;10.55;5.30;;;;;;;;;;5063337;28;20224;-62
2023/09/30 13:58:32;;;;;;;9.68;5.47;;;;;;;;;;5066572;28;20199;-62
2023/09/30 14:00:58;;;;;;;9.40;5.35;;;;;;;;;;5066818;28;20200;-62
2023/09/30 14:03:24;;;;;;;6.68;5.28;;;;;;;;;;5064160;28;20200;-62
2023/09/30 14:05:53;;;;;;;9.68;5.45;;;;;;;;;;5062862;28;20235;-62
2023/09/30 14:08:19;;;;;;;12.30;5.00;;;;;;;;;;5064261;28;20238;-62
2023/09/30 14:10:46;;;;;;;8.65;4.75;;;;;;;;;;5066277;28;20709;-62
2023/09/30 14:13:12;;;;;;;9.48;5.47;;;;;;;;;;5065738;28;20204;-64
2023/09/30 14:15:40;;;;;;;9.52;5.22;;;;;;;;;;5062695;28;20572;-62
2023/09/30 14:18:06;;;;;;;9.07;5.68;;;;;;;;;;5063109;28;20207;-62
2023/09/30 14:20:33;;;;;;;8.95;5.40;;;;;;;;;;5065854;28;20599;-63
2023/09/30 14:22:59;;;;;;;7.75;5.28;;;;;;;;;;5066075;28;20202;-64
2023/09/30 14:25:26;;;;;;;7.88;5.00;;;;;;;;;;5063964;28;20223;-63
2023/09/30 14:27:53;;;;;;;7.85;5.18;;;;;;;;;;5062282;28;20220;-63
2023/09/30 14:30:19;;;;;;;11.73;5.30;;;;;;;;;;5063654;28;20208;-62
2023/09/30 14:32:47;;;;;;;8.27;5.13;;;;;;;;;;5065974;28;20286;-63
2023/09/30 14:35:15;;;;;;;9.18;5.15;;;;;;;;;;5065154;28;20598;-62
2023/09/30 14:37:41;;;;;;;10.82;5.47;;;;;;;;;;5062293;28;20197;-62
2023/09/30 14:40:10;;;;;;;11.73;5.55;;;;;;;;;;5062610;28;20200;-62
2023/09/30 14:42:37;;;;;;;12.95;5.28;;;;;;;;;;5054405;28;20246;-62